createdAt,value
2019-01-14T00:01:02.000Z,99054
2019-01-14T00:02:47.000Z,99051
2019-01-14T00:04:02.000Z,99057
2019-01-14T00:05:47.000Z,99064
2019-01-14T00:07:02.000Z,99064
2019-01-14T00:08:02.000Z,99064
2019-01-14T00:10:02.000Z,99059
2019-01-14T00:12:02.000Z,99064
2019-01-14T00:14:02.000Z,99057
2019-01-14T00:16:02.000Z,99065
2019-01-14T00:18:02.000Z,99062
2019-01-14T00:19:02.000Z,99061
2019-01-14T00:20:02.000Z,99059
2019-01-14T00:22:02.000Z,99061
2019-01-14T00:24:02.000Z,99065
2019-01-14T00:25:32.000Z,99058
2019-01-14T00:27:02.000Z,99066
2019-01-14T00:29:02.000Z,99069
2019-01-14T00:30:47.000Z,99084
2019-01-14T00:32:02.000Z,99075
2019-01-14T00:34:02.000Z,99082
2019-01-14T00:36:02.000Z,99079
2019-01-14T00:38:03.000Z,99085
2019-01-14T00:39:03.000Z,99088
2019-01-14T00:40:03.000Z,99090
2019-01-14T00:42:03.000Z,99086
2019-01-14T00:43:47.000Z,99092
2019-01-14T00:44:48.000Z,99100
2019-01-14T00:47:03.000Z,99101
2019-01-14T00:49:03.000Z,99116
2019-01-14T00:50:32.000Z,99113
2019-01-14T00:52:03.000Z,99118
2019-01-14T00:54:03.000Z,99126
2019-01-14T00:55:03.000Z,99121
2019-01-14T00:56:03.000Z,99123
2019-01-14T00:57:03.000Z,99119
2019-01-14T00:58:47.000Z,99122
2019-01-14T01:00:03.000Z,99129
2019-01-14T01:02:03.000Z,99122
2019-01-14T01:03:03.000Z,99124
2019-01-14T01:04:03.000Z,99132
2019-01-14T01:06:03.000Z,99133
2019-01-14T01:07:03.000Z,99133
2019-01-14T01:08:03.000Z,99135
2019-01-14T01:10:03.000Z,99141
2019-01-14T01:12:03.000Z,99128
2019-01-14T01:13:03.000Z,99143
2019-01-14T01:14:03.000Z,99145
2019-01-14T01:16:02.000Z,99136
2019-01-14T01:17:03.000Z,99148
2019-01-14T01:18:03.000Z,99138
2019-01-14T01:20:03.000Z,99143
2019-01-14T01:21:47.000Z,99148
2019-01-14T01:23:03.000Z,99154
2019-01-14T01:25:03.000Z,99165
2019-01-14T01:27:03.000Z,99179
2019-01-14T01:29:02.000Z,99180
2019-01-14T01:31:03.000Z,99175
2019-01-14T01:32:03.000Z,99183
2019-01-14T01:33:03.000Z,99179
2019-01-14T01:35:03.000Z,99184
2019-01-14T01:37:03.000Z,99196
2019-01-14T01:38:03.000Z,99201
2019-01-14T01:40:03.000Z,99205
2019-01-14T01:41:47.000Z,99202
2019-01-14T01:43:02.000Z,99205
2019-01-14T01:45:02.000Z,99216
2019-01-14T01:47:02.000Z,99220
2019-01-14T01:48:02.000Z,99215
2019-01-14T01:50:02.000Z,99222
2019-01-14T01:52:02.000Z,99224
2019-01-14T01:53:02.000Z,99223
2019-01-14T01:54:32.000Z,99231
2019-01-14T01:56:02.000Z,99216
2019-01-14T01:58:02.000Z,99233
2019-01-14T01:59:47.000Z,99229
2019-01-14T02:01:02.000Z,99226
2019-01-14T02:03:02.000Z,99232
2019-01-14T02:05:02.000Z,99239
2019-01-14T02:06:32.000Z,99245
2019-01-14T02:08:02.000Z,99253
2019-01-14T02:09:02.000Z,99253
2019-01-14T02:10:02.000Z,99258
2019-01-14T02:11:02.000Z,99259
2019-01-14T02:13:02.000Z,99268
2019-01-14T02:14:02.000Z,99265
2019-01-14T02:15:47.000Z,99273
2019-01-14T02:17:02.000Z,99272
2019-01-14T02:18:02.000Z,99273
2019-01-14T02:20:02.000Z,99274
2019-01-14T02:21:02.000Z,99276
2019-01-14T02:23:02.000Z,99268
2019-01-14T02:25:02.000Z,99285
2019-01-14T02:27:02.000Z,99281
2019-01-14T02:29:02.000Z,99290
2019-01-14T02:31:02.000Z,99291
2019-01-14T02:32:02.000Z,99290
2019-01-14T02:33:47.000Z,99297
2019-01-14T02:35:02.000Z,99305
2019-01-14T02:36:47.000Z,99305
2019-01-14T02:39:02.000Z,99299
2019-01-14T02:40:02.000Z,99308
2019-01-14T02:41:02.000Z,99314
2019-01-14T02:42:02.000Z,99317
2019-01-14T02:44:02.000Z,99315
2019-01-14T02:45:02.000Z,99313
2019-01-14T02:46:02.000Z,99312
2019-01-14T02:48:02.000Z,99319
2019-01-14T02:50:02.000Z,99333
2019-01-14T02:52:02.000Z,99330
2019-01-14T02:54:02.000Z,99326
2019-01-14T02:55:47.000Z,99323
2019-01-14T02:57:02.000Z,99333
2019-01-14T02:58:02.000Z,99326
2019-01-14T03:00:02.000Z,99323
2019-01-14T03:01:02.000Z,99325
2019-01-14T03:03:02.000Z,99323
2019-01-14T03:04:47.000Z,99330
2019-01-14T03:06:02.000Z,99325
2019-01-14T03:08:02.000Z,99326
2019-01-14T03:10:02.000Z,99328
2019-01-14T03:11:02.000Z,99332
2019-01-14T03:13:02.000Z,99336
2019-01-14T03:14:02.000Z,99336
2019-01-14T03:15:02.000Z,99346
2019-01-14T03:17:02.000Z,99343
2019-01-14T03:19:02.000Z,99343
2019-01-14T03:21:02.000Z,99343
2019-01-14T03:23:02.000Z,99343
2019-01-14T03:25:02.000Z,99354
2019-01-14T03:27:02.000Z,99348
2019-01-14T03:28:02.000Z,99348
2019-01-14T03:30:02.000Z,99350
2019-01-14T03:31:02.000Z,99349
2019-01-14T03:33:02.000Z,99346
2019-01-14T03:34:47.000Z,99348
2019-01-14T03:36:02.000Z,99350
2019-01-14T03:38:02.000Z,99355
2019-01-14T03:39:02.000Z,99356
2019-01-14T03:41:02.000Z,99352
2019-01-14T03:43:02.000Z,99354
2019-01-14T03:44:02.000Z,99363
2019-01-14T03:46:02.000Z,99359
2019-01-14T03:47:47.000Z,99368
2019-01-14T03:49:02.000Z,99375
2019-01-14T03:51:02.000Z,99378
2019-01-14T03:53:02.000Z,99375
2019-01-14T03:55:02.000Z,99387
2019-01-14T03:56:02.000Z,99390
2019-01-14T03:57:02.000Z,99384
2019-01-14T03:59:02.000Z,99388
2019-01-14T04:01:02.000Z,99389
2019-01-14T04:03:02.000Z,99394
2019-01-14T04:04:02.000Z,99392
2019-01-14T04:06:02.000Z,99389
2019-01-14T04:07:02.000Z,99393
2019-01-14T04:08:47.000Z,99393
2019-01-14T04:10:02.000Z,99404
2019-01-14T04:12:02.000Z,99408
2019-01-14T04:14:02.000Z,99400
2019-01-14T04:16:02.000Z,99400
2019-01-14T04:18:02.000Z,99398
2019-01-14T04:19:02.000Z,99399
2019-01-14T04:21:02.000Z,99401
2019-01-14T04:22:02.000Z,99408
2019-01-14T04:24:02.000Z,99404
2019-01-14T04:25:02.000Z,99410
2019-01-14T04:27:02.000Z,99409
2019-01-14T04:28:02.000Z,99406
2019-01-14T04:29:47.000Z,99408
2019-01-14T04:31:02.000Z,99403
2019-01-14T04:32:47.000Z,99408
2019-01-14T04:34:02.000Z,99413
2019-01-14T04:36:02.000Z,99423
2019-01-14T04:37:47.000Z,99422
2019-01-14T04:39:02.000Z,99427
2019-01-14T04:41:02.000Z,99421
2019-01-14T04:43:02.000Z,99423
2019-01-14T04:45:02.000Z,99421
2019-01-14T04:47:02.000Z,99428
2019-01-14T04:49:02.000Z,99429
2019-01-14T04:51:02.000Z,99434
2019-01-14T04:53:03.000Z,99434
2019-01-14T04:55:03.000Z,99437
2019-01-14T04:57:03.000Z,99430
2019-01-14T04:58:47.000Z,99432
2019-01-14T05:00:03.000Z,99441
2019-01-14T05:01:03.000Z,99442
2019-01-14T05:03:03.000Z,99448
2019-01-14T05:05:03.000Z,99446
2019-01-14T05:07:03.000Z,99451
2019-01-14T05:09:03.000Z,99461
2019-01-14T05:11:03.000Z,99458
2019-01-14T05:12:32.000Z,99462
2019-01-14T05:14:03.000Z,99460
2019-01-14T05:15:03.000Z,99459
2019-01-14T05:17:03.000Z,99458
2019-01-14T05:19:03.000Z,99464
2019-01-14T05:21:03.000Z,99456
2019-01-14T05:22:03.000Z,99456
2019-01-14T05:24:03.000Z,99456
2019-01-14T05:26:03.000Z,99470
2019-01-14T05:27:03.000Z,99465
2019-01-14T05:28:03.000Z,99469
2019-01-14T05:30:03.000Z,99468
2019-01-14T05:31:03.000Z,99469
2019-01-14T05:33:03.000Z,99472
2019-01-14T05:35:03.000Z,99478
2019-01-14T05:36:03.000Z,99490
2019-01-14T05:37:33.000Z,99484
2019-01-14T05:39:02.000Z,99486
2019-01-14T05:41:03.000Z,99483
2019-01-14T05:42:03.000Z,99488
2019-01-14T05:44:03.000Z,99489
2019-01-14T05:46:03.000Z,99491
2019-01-14T05:48:03.000Z,99496
2019-01-14T05:50:03.000Z,99499
2019-01-14T05:52:03.000Z,99502
2019-01-14T05:54:02.000Z,99505
2019-01-14T05:55:03.000Z,99511
2019-01-14T05:56:47.000Z,99504
2019-01-14T05:58:03.000Z,99505
2019-01-14T06:00:03.000Z,99512
2019-01-14T06:01:03.000Z,99511
2019-01-14T06:03:03.000Z,99521
2019-01-14T06:05:03.000Z,99529
2019-01-14T06:06:03.000Z,99529
2019-01-14T06:08:03.000Z,99526
2019-01-14T06:10:03.000Z,99533
2019-01-14T06:12:03.000Z,99530
2019-01-14T06:14:03.000Z,99548
2019-01-14T06:15:03.000Z,99543
2019-01-14T06:16:03.000Z,99542
2019-01-14T06:18:03.000Z,99540
2019-01-14T06:19:47.000Z,99550
2019-01-14T06:21:03.000Z,99549
2019-01-14T06:22:03.000Z,99547
2019-01-14T06:24:03.000Z,99546
2019-01-14T06:25:03.000Z,99541
2019-01-14T06:27:03.000Z,99552
2019-01-14T06:28:03.000Z,99554
2019-01-14T06:29:47.000Z,99547
2019-01-14T06:31:03.000Z,99548
2019-01-14T06:32:03.000Z,99547
2019-01-14T06:33:03.000Z,99556
2019-01-14T06:35:03.000Z,99555
2019-01-14T06:37:03.000Z,99561
2019-01-14T06:38:47.000Z,99568
2019-01-14T06:40:03.000Z,99566
2019-01-14T06:42:03.000Z,99568
2019-01-14T06:44:03.000Z,99576
2019-01-14T06:45:03.000Z,99582
2019-01-14T06:47:03.000Z,99580
2019-01-14T06:49:03.000Z,99590
2019-01-14T06:51:03.000Z,99593
2019-01-14T06:52:03.000Z,99592
2019-01-14T06:54:03.000Z,99590
2019-01-14T06:55:03.000Z,99591
2019-01-14T06:57:03.000Z,99588
2019-01-14T06:59:03.000Z,99598
2019-01-14T07:01:03.000Z,99595
2019-01-14T07:02:03.000Z,99604
2019-01-14T07:03:03.000Z,99604
2019-01-14T07:05:03.000Z,99609
2019-01-14T07:06:48.000Z,99613
2019-01-14T07:09:03.000Z,99623
2019-01-14T07:11:03.000Z,99622
2019-01-14T07:12:47.000Z,99630
2019-01-14T07:14:03.000Z,99631
2019-01-14T07:16:03.000Z,99635
2019-01-14T07:17:03.000Z,99634
2019-01-14T07:19:03.000Z,99637
2019-01-14T07:21:03.000Z,99648
2019-01-14T07:23:03.000Z,99653
2019-01-14T07:24:03.000Z,99670
2019-01-14T07:26:03.000Z,99669
2019-01-14T07:28:03.000Z,99668
2019-01-14T07:30:03.000Z,99683
2019-01-14T07:31:03.000Z,99682
2019-01-14T07:32:03.000Z,99679
2019-01-14T07:35:06.000Z,99683
2019-01-14T07:36:52.000Z,99680
2019-01-14T07:37:52.000Z,99675
2019-01-14T07:39:52.000Z,99686
2019-01-14T07:41:52.000Z,99686
2019-01-14T07:42:52.000Z,99690
2019-01-14T07:44:52.000Z,99696
2019-01-14T07:45:52.000Z,99699
2019-01-14T07:47:52.000Z,99693
2019-01-14T07:49:52.000Z,99688
2019-01-14T07:51:52.000Z,99702
2019-01-14T07:52:52.000Z,99699
2019-01-14T07:53:52.000Z,99703
2019-01-14T07:55:52.000Z,99706
2019-01-14T07:57:52.000Z,99709
2019-01-14T07:59:52.000Z,99722
2019-01-14T08:01:36.000Z,99734
2019-01-14T08:02:52.000Z,99741
2019-01-14T08:03:52.000Z,99736
2019-01-14T08:05:52.000Z,99741
2019-01-14T08:06:52.000Z,99747
2019-01-14T08:08:52.000Z,99749
2019-01-14T08:09:52.000Z,99749
2019-01-14T08:11:52.000Z,99753
2019-01-14T08:13:37.000Z,99756
2019-01-14T08:14:52.000Z,99769
2019-01-14T08:16:52.000Z,99758
2019-01-14T08:17:52.000Z,99762
2019-01-14T08:18:52.000Z,99762
2019-01-14T08:20:37.000Z,99760
2019-01-14T08:21:52.000Z,99759
2019-01-14T08:23:37.000Z,99761
2019-01-14T08:24:52.000Z,99762
2019-01-14T08:26:52.000Z,99766
2019-01-14T08:27:52.000Z,99765
2019-01-14T08:28:52.000Z,99774
2019-01-14T08:30:52.000Z,99770
2019-01-14T08:31:52.000Z,99777
2019-01-14T08:33:52.000Z,99778
2019-01-14T08:35:52.000Z,99780
2019-01-14T08:37:52.000Z,99777
2019-01-14T08:38:52.000Z,99779
2019-01-14T08:40:52.000Z,99781
2019-01-14T08:41:52.000Z,99788
2019-01-14T08:43:52.000Z,99783
2019-01-14T08:45:52.000Z,99788
2019-01-14T08:47:52.000Z,99796
2019-01-14T08:49:37.000Z,99795
2019-01-14T08:50:52.000Z,99800
2019-01-14T08:51:52.000Z,99803
2019-01-14T08:53:52.000Z,99819
2019-01-14T08:55:52.000Z,99820
2019-01-14T08:57:52.000Z,99823
2019-01-14T08:59:52.000Z,99832
2019-01-14T09:01:52.000Z,99826
2019-01-14T09:02:52.000Z,99841
2019-01-14T09:04:22.000Z,99835
2019-01-14T09:05:52.000Z,99843
2019-01-14T09:06:52.000Z,99848
2019-01-14T09:08:22.000Z,99850
2019-01-14T09:09:52.000Z,99856
2019-01-14T09:10:52.000Z,99854
2019-01-14T09:11:52.000Z,99855
2019-01-14T09:13:52.000Z,99855
2019-01-14T09:15:52.000Z,99856
2019-01-14T09:17:52.000Z,99859
2019-01-14T09:18:52.000Z,99858
2019-01-14T09:20:52.000Z,99861
2019-01-14T09:22:52.000Z,99863
2019-01-14T09:23:52.000Z,99862
2019-01-14T09:25:52.000Z,99869
2019-01-14T09:27:52.000Z,99870
2019-01-14T09:29:52.000Z,99869
2019-01-14T09:31:52.000Z,99876
2019-01-14T09:32:52.000Z,99874
2019-01-14T09:34:37.000Z,99875
2019-01-14T09:35:52.000Z,99878
2019-01-14T09:37:52.000Z,99880
2019-01-14T09:38:52.000Z,99880
2019-01-14T09:40:37.000Z,99879
2019-01-14T09:41:52.000Z,99887
2019-01-14T09:43:52.000Z,99891
2019-01-14T09:45:52.000Z,99895
2019-01-14T09:47:52.000Z,99895
2019-01-14T09:49:37.000Z,99905
2019-01-14T09:50:52.000Z,99900
2019-01-14T09:52:52.000Z,99899
2019-01-14T09:53:52.000Z,99907
2019-01-14T09:54:52.000Z,99906
2019-01-14T09:56:52.000Z,99906
2019-01-14T09:58:52.000Z,99913
2019-01-14T10:00:52.000Z,99911
2019-01-14T10:01:52.000Z,99912
2019-01-14T10:03:52.000Z,99921
2019-01-14T10:05:52.000Z,99926
2019-01-14T10:07:52.000Z,99930
2019-01-14T10:09:52.000Z,99934
2019-01-14T10:11:52.000Z,99934
2019-01-14T10:13:52.000Z,99933
2019-01-14T10:15:21.000Z,99928
2019-01-14T10:16:52.000Z,99928
2019-01-14T10:18:52.000Z,99929
2019-01-14T10:20:21.000Z,99921
2019-01-14T10:21:52.000Z,99932
2019-01-14T10:23:52.000Z,99944
2019-01-14T10:24:52.000Z,99941
2019-01-14T10:26:52.000Z,99943
2019-01-14T10:28:36.000Z,99936
2019-01-14T10:29:52.000Z,99937
2019-01-14T10:31:52.000Z,99941
2019-01-14T10:33:52.000Z,99936
2019-01-14T10:34:52.000Z,99945
2019-01-14T10:36:52.000Z,99941
2019-01-14T10:38:52.000Z,99924
2019-01-14T10:39:52.000Z,99928
2019-01-14T10:41:52.000Z,99930
2019-01-14T10:43:52.000Z,99941
2019-01-14T10:45:52.000Z,99921
2019-01-14T10:46:52.000Z,99941
2019-01-14T10:48:52.000Z,99933
2019-01-14T10:50:52.000Z,99951
2019-01-14T10:51:52.000Z,99953
2019-01-14T10:53:52.000Z,99957
2019-01-14T10:54:52.000Z,99955
2019-01-14T10:56:52.000Z,99945
2019-01-14T10:57:52.000Z,99939
2019-01-14T10:59:52.000Z,99936
2019-01-14T11:00:52.000Z,99945
2019-01-14T11:02:52.000Z,99956
2019-01-14T11:04:52.000Z,99953
2019-01-14T11:06:36.000Z,99965
2019-01-14T11:07:52.000Z,99961
2019-01-14T11:09:52.000Z,99950
2019-01-14T11:10:52.000Z,99960
2019-01-14T11:12:52.000Z,99974
2019-01-14T11:14:37.000Z,99951
2019-01-14T11:15:52.000Z,99964
2019-01-14T11:17:36.000Z,99959
2019-01-14T11:18:51.000Z,99962
2019-01-14T11:19:51.000Z,99963
2019-01-14T11:21:51.000Z,99956
2019-01-14T11:22:51.000Z,99965
2019-01-14T11:23:51.000Z,99971
2019-01-14T11:24:51.000Z,99970
2019-01-14T11:26:36.000Z,99980
2019-01-14T11:28:51.000Z,99967
2019-01-14T11:30:51.000Z,99960
2019-01-14T11:32:51.000Z,99970
2019-01-14T11:34:51.000Z,99981
2019-01-14T11:35:51.000Z,99986
2019-01-14T11:37:51.000Z,99990
2019-01-14T11:39:36.000Z,99977
2019-01-14T11:40:51.000Z,99983
2019-01-14T11:42:51.000Z,99984
2019-01-14T11:43:51.000Z,99984
2019-01-14T11:45:36.000Z,99974
2019-01-14T11:46:51.000Z,99991
2019-01-14T11:47:51.000Z,99982
2019-01-14T11:49:51.000Z,99997
2019-01-14T11:51:51.000Z,99993
2019-01-14T11:53:51.000Z,99997
2019-01-14T11:55:51.000Z,100003
2019-01-14T11:56:51.000Z,99999
2019-01-14T11:58:51.000Z,99997
2019-01-14T12:00:51.000Z,99994
2019-01-14T12:02:36.000Z,99998
2019-01-14T12:04:51.000Z,99996
2019-01-14T12:06:51.000Z,100006
2019-01-14T12:07:51.000Z,100001
2019-01-14T12:08:51.000Z,100003
2019-01-14T12:10:36.000Z,100000
2019-01-14T12:11:51.000Z,99997
2019-01-14T12:13:36.000Z,99998
2019-01-14T12:14:51.000Z,99996
2019-01-14T12:15:51.000Z,100009
2019-01-14T12:17:36.000Z,100008
2019-01-14T12:18:51.000Z,100016
2019-01-14T12:20:51.000Z,100019
2019-01-14T12:22:51.000Z,100021
2019-01-14T12:24:51.000Z,100026
2019-01-14T12:25:51.000Z,100021
2019-01-14T12:27:51.000Z,100037
2019-01-14T12:29:36.000Z,100039
2019-01-14T12:30:52.000Z,100035
2019-01-14T12:32:51.000Z,100031
2019-01-14T12:34:51.000Z,100034
2019-01-14T12:35:51.000Z,100028
2019-01-14T12:37:51.000Z,100032
2019-01-14T12:38:51.000Z,100033
2019-01-14T12:40:22.000Z,100038
2019-01-14T13:23:32.000Z,100053
2019-01-14T13:25:03.000Z,100061
2019-01-14T13:26:18.000Z,100050
2019-01-14T13:27:18.000Z,100058
2019-01-14T13:29:18.000Z,100062
2019-01-14T13:31:18.000Z,100069
2019-01-14T13:33:18.000Z,100058
2019-01-14T13:35:18.000Z,100060
2019-01-14T13:37:18.000Z,100067
2019-01-14T13:39:18.000Z,100069
2019-01-14T13:41:18.000Z,100065
2019-01-14T13:43:18.000Z,100073
2019-01-14T13:44:18.000Z,100072
2019-01-14T13:45:48.000Z,100080
2019-01-14T13:47:04.000Z,100091
2019-01-14T13:49:18.000Z,100091
2019-01-14T13:51:18.000Z,100102
2019-01-14T13:52:48.000Z,100100
2019-01-14T13:54:18.000Z,100101
2019-01-14T13:56:18.000Z,100101
2019-01-14T13:58:03.000Z,100108
2019-01-14T14:00:18.000Z,100097
2019-01-14T14:01:18.000Z,100107
2019-01-14T14:03:18.000Z,100111
2019-01-14T14:05:03.000Z,100116
2019-01-14T14:07:18.000Z,100132
2019-01-14T14:08:18.000Z,100131
2019-01-14T14:10:18.000Z,100139
2019-01-14T14:12:18.000Z,100136
2019-01-14T14:13:18.000Z,100149
2019-01-14T14:15:18.000Z,100150
2019-01-14T14:17:18.000Z,100152
2019-01-14T14:19:18.000Z,100159
2019-01-14T14:21:18.000Z,100169
2019-01-14T14:23:18.000Z,100172
2019-01-14T14:25:18.000Z,100188
2019-01-14T14:27:03.000Z,100198
2019-01-14T14:28:18.000Z,100202
2019-01-14T14:30:18.000Z,100188
2019-01-14T14:32:18.000Z,100188
2019-01-14T14:34:18.000Z,100206
2019-01-14T14:35:48.000Z,100206
2019-01-14T14:38:18.000Z,100210
2019-01-14T14:40:18.000Z,100206
2019-01-14T14:41:18.000Z,100210
2019-01-14T14:42:18.000Z,100205
2019-01-14T14:44:18.000Z,100206
2019-01-14T14:46:18.000Z,100205
2019-01-14T14:48:18.000Z,100204
2019-01-14T14:50:18.000Z,100213
2019-01-14T14:52:18.000Z,100211
2019-01-14T14:54:18.000Z,100216
2019-01-14T14:55:18.000Z,100209
2019-01-14T14:57:18.000Z,100218
2019-01-14T14:58:18.000Z,100217
2019-01-14T14:59:18.000Z,100217
2019-01-14T15:00:18.000Z,100215
2019-01-14T15:02:18.000Z,100209
2019-01-14T15:04:18.000Z,100214
2019-01-14T15:06:18.000Z,100209
2019-01-14T15:08:18.000Z,100218
2019-01-14T15:09:48.000Z,100218
2019-01-14T15:52:54.000Z,100309
2019-01-14T15:54:25.000Z,100296
2019-01-14T15:55:40.000Z,100300
2019-01-14T15:56:40.000Z,100307
2019-01-14T15:58:25.000Z,100303
2019-01-14T15:59:40.000Z,100298
2019-01-14T16:01:40.000Z,100308
2019-01-14T16:03:40.000Z,100309
2019-01-14T16:04:40.000Z,100312
2019-01-14T16:06:40.000Z,100318
2019-01-14T16:08:25.000Z,100320
2019-01-14T16:09:40.000Z,100317
2019-01-14T16:11:40.000Z,100314
2019-01-14T16:12:40.000Z,100318
2019-01-14T16:14:25.000Z,100320
2019-01-14T16:15:40.000Z,100320
2019-01-14T16:16:40.000Z,100319
2019-01-14T16:18:40.000Z,100317
2019-01-14T16:19:40.000Z,100320
2019-01-14T16:20:40.000Z,100327
2019-01-14T16:22:40.000Z,100318
2019-01-14T16:24:40.000Z,100325
2019-01-14T16:25:40.000Z,100328
2019-01-14T16:27:40.000Z,100339
2019-01-14T16:29:40.000Z,100331
2019-01-14T16:30:40.000Z,100335
2019-01-14T16:32:40.000Z,100330
2019-01-14T16:33:40.000Z,100339
2019-01-14T16:34:40.000Z,100338
2019-01-14T16:36:25.000Z,100345
2019-01-14T16:37:40.000Z,100338
2019-01-14T16:38:40.000Z,100346
2019-01-14T16:40:10.000Z,100347
2019-01-14T16:41:25.000Z,100345
2019-01-14T16:42:40.000Z,100347
2019-01-14T16:43:40.000Z,100342
2019-01-14T16:44:40.000Z,100339
2019-01-14T16:46:40.000Z,100339
2019-01-14T16:47:40.000Z,100347
2019-01-14T16:49:40.000Z,100350
2019-01-14T16:51:40.000Z,100347
2019-01-14T16:53:25.000Z,100357
2019-01-14T16:54:40.000Z,100362
2019-01-14T16:56:40.000Z,100364
2019-01-14T16:57:40.000Z,100369
2019-01-14T16:59:40.000Z,100366
2019-01-14T17:00:40.000Z,100372
2019-01-14T17:02:40.000Z,100367
2019-01-14T17:03:40.000Z,100371
2019-01-14T17:05:10.000Z,100367
2019-01-14T17:06:40.000Z,100373
2019-01-14T17:08:40.000Z,100373
2019-01-14T17:09:40.000Z,100376
2019-01-14T17:10:40.000Z,100366
2019-01-14T17:12:40.000Z,100377
2019-01-14T17:14:25.000Z,100383
2019-01-14T17:15:40.000Z,100381
2019-01-14T17:17:40.000Z,100373
2019-01-14T17:18:40.000Z,100383
2019-01-14T17:20:40.000Z,100396
2019-01-14T17:22:40.000Z,100389
2019-01-14T17:23:40.000Z,100390
2019-01-14T17:25:40.000Z,100399
2019-01-14T17:27:40.000Z,100399
2019-01-14T17:29:40.000Z,100409
2019-01-14T17:31:40.000Z,100409
2019-01-14T17:32:40.000Z,100402
2019-01-14T17:34:25.000Z,100402
2019-01-14T17:35:40.000Z,100408
2019-01-14T17:36:40.000Z,100413
2019-01-14T17:37:40.000Z,100413
2019-01-14T17:39:40.000Z,100410
2019-01-14T17:41:40.000Z,100409
2019-01-14T17:43:40.000Z,100416
2019-01-14T17:44:40.000Z,100408
2019-01-14T17:45:40.000Z,100412
2019-01-14T17:47:40.000Z,100419
2019-01-14T17:49:40.000Z,100420
2019-01-14T17:51:40.000Z,100422
2019-01-14T17:53:25.000Z,100431
2019-01-14T17:54:40.000Z,100440
2019-01-14T17:56:40.000Z,100438
2019-01-14T17:57:40.000Z,100438
2019-01-14T17:58:40.000Z,100434
2019-01-14T17:59:40.000Z,100436
2019-01-14T18:01:40.000Z,100442
2019-01-14T18:03:40.000Z,100452
2019-01-14T18:05:40.000Z,100451
2019-01-14T18:07:40.000Z,100455
2019-01-14T18:09:40.000Z,100462
2019-01-14T18:10:40.000Z,100460
2019-01-14T18:12:40.000Z,100465
2019-01-14T18:14:40.000Z,100465
2019-01-14T18:16:25.000Z,100464
2019-01-14T18:17:40.000Z,100458
2019-01-14T18:19:25.000Z,100473
2019-01-14T18:20:40.000Z,100473
2019-01-14T18:22:40.000Z,100475
2019-01-14T18:24:40.000Z,100473
2019-01-14T18:25:40.000Z,100478
2019-01-14T18:27:40.000Z,100485
2019-01-14T18:29:25.000Z,100481
2019-01-14T18:31:40.000Z,100484
2019-01-14T18:33:40.000Z,100494
2019-01-14T18:34:40.000Z,100497
2019-01-14T18:36:40.000Z,100505
2019-01-14T18:38:40.000Z,100502
2019-01-14T18:40:25.000Z,100512
2019-01-14T18:42:40.000Z,100511
2019-01-14T18:43:40.000Z,100511
2019-01-14T18:45:40.000Z,100521
2019-01-14T18:47:40.000Z,100517
2019-01-14T18:49:40.000Z,100525
2019-01-14T18:51:40.000Z,100523
2019-01-14T18:53:40.000Z,100532
2019-01-14T18:55:40.000Z,100525
2019-01-14T18:56:40.000Z,100529
2019-01-14T18:58:40.000Z,100529
2019-01-14T19:00:40.000Z,100524
2019-01-14T19:01:40.000Z,100529
2019-01-14T19:03:40.000Z,100529
2019-01-14T19:04:40.000Z,100531
2019-01-14T19:06:25.000Z,100533
2019-01-14T19:07:40.000Z,100536
2019-01-14T19:09:25.000Z,100535
2019-01-14T19:10:40.000Z,100536
2019-01-14T19:12:25.000Z,100543
2019-01-14T19:14:40.000Z,100537
2019-01-14T19:15:40.000Z,100544
2019-01-14T19:16:40.000Z,100544
2019-01-14T19:18:40.000Z,100549
2019-01-14T19:20:40.000Z,100548
2019-01-14T19:21:40.000Z,100543
2019-01-14T19:23:25.000Z,100554
2019-01-14T19:24:40.000Z,100552
2019-01-14T19:26:10.000Z,100553
2019-01-14T19:27:10.000Z,100545
2019-01-14T19:28:25.000Z,100550
2019-01-14T19:29:40.000Z,100550
2019-01-14T19:31:40.000Z,100554
2019-01-14T19:32:40.000Z,100555
2019-01-14T19:34:25.000Z,100552
2019-01-14T19:35:40.000Z,100557
2019-01-14T19:37:40.000Z,100558
2019-01-14T19:39:40.000Z,100569
2019-01-14T19:41:25.000Z,100565
2019-01-14T19:42:41.000Z,100564
2019-01-14T19:44:25.000Z,100567
2019-01-14T19:45:41.000Z,100568
2019-01-14T19:47:41.000Z,100565
2019-01-14T19:49:25.000Z,100565
2019-01-14T19:50:41.000Z,100569
2019-01-14T19:51:41.000Z,100569
2019-01-14T19:53:41.000Z,100562
2019-01-14T19:54:41.000Z,100568
2019-01-14T19:56:41.000Z,100565
2019-01-14T19:57:41.000Z,100570
2019-01-14T19:59:25.000Z,100566
2019-01-14T20:00:41.000Z,100568
2019-01-14T20:02:25.000Z,100576
2019-01-14T20:03:41.000Z,100580
2019-01-14T20:05:41.000Z,100583
2019-01-14T20:07:11.000Z,100575
2019-01-14T20:08:41.000Z,100583
2019-01-14T20:09:41.000Z,100585
2019-01-14T20:11:25.000Z,100584
2019-01-14T20:12:41.000Z,100584
2019-01-14T20:14:10.000Z,100580
2019-01-14T20:15:41.000Z,100574
2019-01-14T20:16:41.000Z,100582
2019-01-14T20:18:41.000Z,100580
2019-01-14T20:20:41.000Z,100582
2019-01-14T20:22:41.000Z,100588
2019-01-14T20:24:41.000Z,100586
2019-01-14T20:26:41.000Z,100592
2019-01-14T20:27:41.000Z,100594
2019-01-14T20:28:41.000Z,100596
2019-01-14T20:30:41.000Z,100595
2019-01-14T20:32:41.000Z,100605
2019-01-14T20:34:41.000Z,100605
2019-01-14T20:36:25.000Z,100605
2019-01-14T20:37:41.000Z,100603
2019-01-14T20:39:41.000Z,100606
2019-01-14T20:40:41.000Z,100613
2019-01-14T20:42:41.000Z,100609
2019-01-14T20:43:41.000Z,100609
2019-01-14T20:45:41.000Z,100602
2019-01-14T20:47:41.000Z,100608
2019-01-14T20:49:41.000Z,100608
2019-01-14T20:50:41.000Z,100609
2019-01-14T20:51:41.000Z,100609
2019-01-14T20:53:11.000Z,100608
2019-01-14T20:54:41.000Z,100609
2019-01-14T20:55:41.000Z,100607
2019-01-14T20:57:41.000Z,100614
2019-01-14T20:59:26.000Z,100613
2019-01-14T21:01:41.000Z,100613
2019-01-14T21:02:41.000Z,100619
2019-01-14T21:04:41.000Z,100618
2019-01-14T21:06:26.000Z,100621
2019-01-14T21:07:41.000Z,100612
2019-01-14T21:09:41.000Z,100618
2019-01-14T21:11:41.000Z,100617
2019-01-14T21:13:26.000Z,100617
2019-01-14T21:14:41.000Z,100618
2019-01-14T21:16:41.000Z,100617
2019-01-14T21:18:26.000Z,100619
2019-01-14T21:19:41.000Z,100622
2019-01-14T21:20:41.000Z,100624
2019-01-14T21:21:41.000Z,100615
2019-01-14T21:23:41.000Z,100619
2019-01-14T21:25:41.000Z,100617
2019-01-14T21:26:41.000Z,100621
2019-01-14T21:28:41.000Z,100618
2019-01-14T21:29:41.000Z,100622
2019-01-14T21:31:41.000Z,100618
2019-01-14T21:33:41.000Z,100620
2019-01-14T21:34:41.000Z,100626
2019-01-14T21:36:41.000Z,100620
2019-01-14T21:38:41.000Z,100622
2019-01-14T21:40:41.000Z,100627
2019-01-14T21:42:25.000Z,100621
2019-01-14T21:43:41.000Z,100627
2019-01-14T21:44:41.000Z,100621
2019-01-14T21:46:41.000Z,100622
2019-01-14T21:48:11.000Z,100629
2019-01-14T21:49:41.000Z,100627
2019-01-14T21:50:40.000Z,100628
2019-01-14T21:52:40.000Z,100630
2019-01-14T21:53:40.000Z,100626
2019-01-14T21:55:25.000Z,100628